createdAt,value
2023-01-29T00:01:48.142Z,90.89
2023-01-29T00:04:15.245Z,90.99
2023-01-29T00:06:42.072Z,91.62
2023-01-29T00:09:09.378Z,91.70
2023-01-29T00:11:36.060Z,91.32
2023-01-29T00:14:02.592Z,91.15
2023-01-29T00:16:29.520Z,91.17
2023-01-29T00:18:55.947Z,90.61
2023-01-29T00:21:23.044Z,90.35
2023-01-29T00:23:50.424Z,90.92
2023-01-29T00:26:17.060Z,91.57
2023-01-29T00:28:44.074Z,91.12
2023-01-29T00:31:16.103Z,90.51
2023-01-29T00:33:42.879Z,91.18
2023-01-29T00:36:11.610Z,91.40
2023-01-29T00:38:39.532Z,90.96
2023-01-29T00:41:28.685Z,91.17
2023-01-29T00:44:13.991Z,91.38
2023-01-29T00:46:40.564Z,91.22
2023-01-29T00:49:07.812Z,90.98
2023-01-29T00:51:35.612Z,90.63
2023-01-29T00:54:06.702Z,91.04
2023-01-29T00:56:35.851Z,91.34
2023-01-29T00:59:04.123Z,91.63
2023-01-29T01:01:49.492Z,91.25
2023-01-29T01:04:16.032Z,92.33
2023-01-29T01:06:43.396Z,92.26
2023-01-29T01:09:29.554Z,92.28
2023-01-29T01:11:56.819Z,91.82
2023-01-29T01:14:23.394Z,92.09
2023-01-29T01:16:49.927Z,91.54
2023-01-29T01:19:16.791Z,92.49
2023-01-29T01:21:45.431Z,92.78
2023-01-29T01:24:13.097Z,91.92
2023-01-29T01:26:39.830Z,92.23
2023-01-29T01:29:06.456Z,90.98
2023-01-29T01:31:32.894Z,91.02
2023-01-29T01:33:59.485Z,91.33
2023-01-29T01:36:25.974Z,90.97
2023-01-29T01:38:52.402Z,91.08
2023-01-29T01:41:21.866Z,91.10
2023-01-29T01:44:01.489Z,91.56
2023-01-29T01:46:31.427Z,92.09
2023-01-29T01:49:16.129Z,92.07
2023-01-29T01:51:50.703Z,93.02
2023-01-29T01:54:23.824Z,92.39
2023-01-29T01:56:55.859Z,92.10
2023-01-29T01:59:23.844Z,93.05
2023-01-29T02:01:53.965Z,92.65
2023-01-29T02:04:42.511Z,92.71
2023-01-29T02:07:32.603Z,92.54
2023-01-29T02:10:16.880Z,91.87
2023-01-29T02:12:45.753Z,91.82
2023-01-29T02:15:13.267Z,92.07
2023-01-29T02:17:40.015Z,92.83
2023-01-29T02:20:15.968Z,92.33
2023-01-29T02:22:56.071Z,92.31
2023-01-29T02:25:50.664Z,92.47
2023-01-29T02:28:43.251Z,91.82
2023-01-29T02:31:35.485Z,92.23
2023-01-29T02:34:51.730Z,92.40
2023-01-29T02:37:25.663Z,92.10
2023-01-29T02:39:57.192Z,92.03
2023-01-29T02:42:39.164Z,92.40
2023-01-29T02:45:12.291Z,91.65
2023-01-29T02:48:05.574Z,92.49
2023-01-29T02:50:45.390Z,92.55
2023-01-29T02:53:41.127Z,92.64
2023-01-29T02:56:15.639Z,91.08
2023-01-29T02:58:46.000Z,91.79
2023-01-29T03:01:18.798Z,92.17
2023-01-29T03:03:50.160Z,90.95
2023-01-29T03:06:46.475Z,91.46
2023-01-29T03:09:21.932Z,92.77
2023-01-29T03:11:58.665Z,92.62
2023-01-29T03:14:52.916Z,93.02
2023-01-29T03:17:25.426Z,92.89
2023-01-29T03:19:52.471Z,93.29
2023-01-29T03:22:23.158Z,93.48
2023-01-29T03:25:15.614Z,93.68
2023-01-29T03:28:09.519Z,93.47
2023-01-29T03:31:09.357Z,91.76
2023-01-29T03:33:44.297Z,92.12
2023-01-29T03:36:18.583Z,92.55
2023-01-29T03:38:48.995Z,92.65
2023-01-29T03:41:28.687Z,92.22
2023-01-29T03:44:02.425Z,93.14
2023-01-29T03:46:34.638Z,93.62
2023-01-29T03:49:15.942Z,92.46
2023-01-29T03:51:48.432Z,91.57
2023-01-29T03:54:44.256Z,91.55
2023-01-29T03:57:27.151Z,91.24
2023-01-29T04:00:02.148Z,91.96
2023-01-29T04:02:35.705Z,91.22
2023-01-29T04:05:10.953Z,90.79
2023-01-29T04:07:40.543Z,90.28
2023-01-29T04:10:17.101Z,91.17
2023-01-29T04:12:53.718Z,91.13
2023-01-29T04:15:23.128Z,89.92
2023-01-29T04:17:52.722Z,90.48
2023-01-29T04:20:20.797Z,91.56
2023-01-29T04:22:50.355Z,91.25
2023-01-29T04:25:26.858Z,91.38
2023-01-29T04:28:05.779Z,90.98
2023-01-29T04:30:56.552Z,91.87
2023-01-29T04:33:40.343Z,91.57
2023-01-29T04:36:20.738Z,91.05
2023-01-29T04:39:17.990Z,91.67
2023-01-29T04:41:54.421Z,92.33
2023-01-29T04:44:24.459Z,92.92
2023-01-29T04:47:20.155Z,91.77
2023-01-29T04:49:58.977Z,92.44
2023-01-29T04:52:46.967Z,92.06
2023-01-29T04:55:35.973Z,91.28
2023-01-29T04:58:12.655Z,91.34
2023-01-29T05:00:44.357Z,91.74
2023-01-29T05:03:13.348Z,91.57
2023-01-29T05:05:42.951Z,91.08
2023-01-29T05:08:13.449Z,90.73
2023-01-29T05:10:40.145Z,90.44
2023-01-29T05:13:11.591Z,89.85
2023-01-29T05:15:41.838Z,89.87
2023-01-29T05:18:09.028Z,89.89
2023-01-29T05:20:39.124Z,90.71
2023-01-29T05:23:18.623Z,91.13
2023-01-29T05:25:46.351Z,90.85
2023-01-29T05:28:17.190Z,90.20
2023-01-29T05:30:46.478Z,89.99
2023-01-29T05:33:19.068Z,90.05
2023-01-29T05:35:46.564Z,90.79
2023-01-29T05:38:13.351Z,90.72
2023-01-29T05:40:40.221Z,90.18
2023-01-29T05:43:15.381Z,90.78
2023-01-29T05:45:42.155Z,88.84
2023-01-29T05:48:09.185Z,89.86
2023-01-29T05:50:35.664Z,89.43
2023-01-29T05:53:02.411Z,88.78
2023-01-29T05:55:31.958Z,89.29
2023-01-29T05:57:58.683Z,89.48
2023-01-29T06:00:25.594Z,90.01
2023-01-29T06:02:52.785Z,89.71
2023-01-29T06:05:19.267Z,90.02
2023-01-29T06:07:46.961Z,91.03
2023-01-29T06:10:15.649Z,91.09
2023-01-29T06:12:43.584Z,89.71
2023-01-29T06:15:11.159Z,89.69
2023-01-29T06:17:37.804Z,90.55
2023-01-29T06:20:05.378Z,89.28
2023-01-29T06:22:33.091Z,90.46
2023-01-29T06:24:59.975Z,90.53
2023-01-29T06:27:26.678Z,90.40
2023-01-29T06:29:53.390Z,90.35
2023-01-29T06:32:19.995Z,89.66
2023-01-29T06:34:48.716Z,90.55
2023-01-29T06:37:16.392Z,90.73
2023-01-29T06:39:42.822Z,89.70
2023-01-29T06:42:09.980Z,90.70
2023-01-29T06:44:36.901Z,89.86
2023-01-29T06:47:03.834Z,90.15
2023-01-29T06:49:30.998Z,89.99
2023-01-29T06:51:57.727Z,89.35
2023-01-29T06:54:26.209Z,90.44
2023-01-29T06:56:53.307Z,89.23
2023-01-29T06:59:20.078Z,90.07
2023-01-29T07:01:46.768Z,89.37
2023-01-29T07:04:13.676Z,89.62
2023-01-29T07:06:40.156Z,90.31
2023-01-29T07:09:07.002Z,89.92
2023-01-29T07:11:37.855Z,90.56
2023-01-29T07:14:04.494Z,89.65
2023-01-29T07:16:31.371Z,89.16
2023-01-29T07:18:58.174Z,89.01
2023-01-29T07:21:25.060Z,89.42
2023-01-29T07:23:51.526Z,89.04
2023-01-29T07:26:18.717Z,88.44
2023-01-29T07:28:45.088Z,88.42
2023-01-29T07:31:13.864Z,89.12
2023-01-29T07:33:43.795Z,89.48
2023-01-29T07:36:11.570Z,90.16
2023-01-29T07:38:38.126Z,89.39
2023-01-29T07:41:04.861Z,88.80
2023-01-29T07:43:31.487Z,86.57
2023-01-29T07:46:02.380Z,87.81
2023-01-29T07:48:28.986Z,88.30
2023-01-29T07:50:57.403Z,88.54
2023-01-29T07:53:23.969Z,89.44
2023-01-29T07:55:51.468Z,89.39
2023-01-29T07:58:18.366Z,87.65
2023-01-29T08:00:45.211Z,87.24
2023-01-29T08:03:17.575Z,86.57
2023-01-29T08:05:44.811Z,86.38
2023-01-29T08:08:11.470Z,87.24
2023-01-29T08:10:39.516Z,85.88
2023-01-29T08:13:07.340Z,86.49
2023-01-29T08:15:37.086Z,85.45
2023-01-29T08:18:04.778Z,86.46
2023-01-29T08:20:31.461Z,85.97
2023-01-29T08:23:02.759Z,84.88
2023-01-29T08:25:29.452Z,84.41
2023-01-29T08:27:57.909Z,84.62
2023-01-29T08:30:30.245Z,84.49
2023-01-29T08:32:57.130Z,85.84
2023-01-29T08:35:24.442Z,85.43
2023-01-29T08:37:54.566Z,84.56
2023-01-29T08:40:21.527Z,83.69
2023-01-29T08:42:48.115Z,82.43
2023-01-29T08:45:14.680Z,83.72
2023-01-29T08:47:49.049Z,83.17
2023-01-29T08:50:17.638Z,82.67
2023-01-29T08:52:45.689Z,82.82
2023-01-29T08:55:12.307Z,79.10
2023-01-29T08:57:39.400Z,78.58
2023-01-29T09:00:07.696Z,80.72
2023-01-29T09:02:34.971Z,80.39
2023-01-29T09:05:01.499Z,79.53
2023-01-29T09:07:29.250Z,79.45
2023-01-29T09:09:55.875Z,80.61
2023-01-29T09:12:22.547Z,80.04
2023-01-29T09:14:49.237Z,79.22
2023-01-29T09:17:15.853Z,79.93
2023-01-29T09:19:42.305Z,78.04
2023-01-29T09:22:10.943Z,79.62
2023-01-29T09:24:38.307Z,79.52
2023-01-29T09:27:06.023Z,79.34
2023-01-29T09:29:35.431Z,81.21
2023-01-29T09:32:04.581Z,79.65
2023-01-29T09:34:31.173Z,79.48
2023-01-29T09:36:58.373Z,79.26
2023-01-29T09:39:25.475Z,79.28
2023-01-29T09:41:58.392Z,78.89
2023-01-29T09:44:43.545Z,78.36
2023-01-29T09:47:13.772Z,78.65
2023-01-29T09:49:45.832Z,76.20
2023-01-29T09:52:20.262Z,75.24
2023-01-29T09:55:05.972Z,75.75
2023-01-29T09:57:54.143Z,76.24
2023-01-29T10:00:37.405Z,75.77
2023-01-29T10:03:32.017Z,71.97
2023-01-29T10:06:08.040Z,72.86
2023-01-29T10:08:47.033Z,73.90
2023-01-29T10:11:26.927Z,72.39
2023-01-29T10:14:22.704Z,71.20
2023-01-29T10:17:07.449Z,72.78
2023-01-29T10:19:52.626Z,72.98
2023-01-29T10:22:39.624Z,72.48
2023-01-29T10:25:11.445Z,74.33
2023-01-29T10:27:41.159Z,75.34
2023-01-29T10:30:20.385Z,75.42
2023-01-29T10:32:49.206Z,75.01
2023-01-29T10:35:34.291Z,73.19
2023-01-29T10:38:18.620Z,73.50
2023-01-29T10:40:55.647Z,73.13
2023-01-29T10:43:37.257Z,74.71
2023-01-29T10:46:18.129Z,72.29
2023-01-29T10:48:57.209Z,72.50
2023-01-29T10:51:35.904Z,70.81
2023-01-29T10:54:19.607Z,72.12
2023-01-29T10:56:55.903Z,72.68
2023-01-29T10:59:48.833Z,71.21
2023-01-29T11:02:18.550Z,71.32
2023-01-29T11:04:45.753Z,70.22
2023-01-29T11:07:14.704Z,68.80
2023-01-29T11:09:56.255Z,69.07
2023-01-29T11:12:30.308Z,67.06
2023-01-29T11:15:04.929Z,65.20
2023-01-29T11:17:31.532Z,67.08
2023-01-29T11:19:58.559Z,64.54
2023-01-29T11:22:27.443Z,66.01
2023-01-29T11:25:21.831Z,66.63
2023-01-29T11:28:02.873Z,66.21
2023-01-29T11:30:37.310Z,64.15
2023-01-29T11:33:23.637Z,63.53
2023-01-29T11:35:52.441Z,64.64
2023-01-29T11:38:25.704Z,63.91
2023-01-29T11:40:53.274Z,65.55
2023-01-29T11:43:22.530Z,63.12
2023-01-29T11:45:56.003Z,64.33
2023-01-29T11:48:32.172Z,64.49
2023-01-29T11:51:00.692Z,63.51
2023-01-29T11:53:36.977Z,59.56
2023-01-29T11:56:06.930Z,56.50
2023-01-29T11:58:35.799Z,55.64
2023-01-29T12:01:03.783Z,55.35
2023-01-29T12:03:40.109Z,58.04
2023-01-29T12:06:21.493Z,57.03
2023-01-29T12:08:58.742Z,56.29
2023-01-29T12:11:31.748Z,58.91
2023-01-29T12:14:01.020Z,58.12
2023-01-29T12:16:38.137Z,58.92
2023-01-29T12:19:38.229Z,56.03
2023-01-29T12:22:28.663Z,55.37
2023-01-29T12:24:55.119Z,55.94
2023-01-29T12:27:46.408Z,56.46
2023-01-29T12:30:21.608Z,57.67
2023-01-29T12:32:56.504Z,59.83
2023-01-29T12:35:28.432Z,58.71
2023-01-29T12:38:02.493Z,59.93
2023-01-29T12:40:38.559Z,62.75
2023-01-29T12:43:15.246Z,62.10
2023-01-29T12:45:47.996Z,60.96
2023-01-29T12:51:38.669Z,64.43
2023-01-29T12:54:12.555Z,63.40
2023-01-29T12:56:47.012Z,63.38
2023-01-29T12:59:36.339Z,61.94
2023-01-29T13:02:20.518Z,65.41
2023-01-29T13:05:03.904Z,63.48
2023-01-29T13:07:36.011Z,62.18
2023-01-29T13:10:13.734Z,63.93
2023-01-29T13:12:51.707Z,64.30
2023-01-29T13:15:31.240Z,64.82
2023-01-29T13:18:30.781Z,63.46
2023-01-29T13:21:00.180Z,64.70
2023-01-29T13:23:36.233Z,64.43
2023-01-29T13:26:03.785Z,64.02
2023-01-29T13:28:30.573Z,63.75
2023-01-29T13:31:35.834Z,64.66
2023-01-29T13:34:31.514Z,66.00
2023-01-29T13:37:00.988Z,65.95
2023-01-29T13:39:34.367Z,64.41
2023-01-29T13:42:14.701Z,65.02
2023-01-29T13:44:41.446Z,65.70
2023-01-29T13:47:11.232Z,64.79
2023-01-29T13:49:59.507Z,65.28
2023-01-29T13:52:37.143Z,64.70
2023-01-29T13:55:15.220Z,65.93
2023-01-29T13:57:48.726Z,64.92
2023-01-29T14:00:21.188Z,64.43
2023-01-29T14:03:13.547Z,63.82
2023-01-29T14:05:58.425Z,64.64
2023-01-29T14:08:34.171Z,65.12
2023-01-29T14:11:16.914Z,65.68
2023-01-29T14:13:47.069Z,65.83
2023-01-29T14:16:13.524Z,66.44
2023-01-29T14:18:47.876Z,65.41
2023-01-29T14:21:14.380Z,66.00
2023-01-29T14:23:49.753Z,66.17
2023-01-29T14:26:32.243Z,66.44
2023-01-29T14:29:18.772Z,67.53
2023-01-29T14:32:21.256Z,66.09
2023-01-29T14:34:50.810Z,66.84
2023-01-29T14:37:28.178Z,67.35
2023-01-29T14:39:58.219Z,67.49
2023-01-29T14:42:29.579Z,66.42
2023-01-29T14:45:25.995Z,67.78
2023-01-29T14:48:02.217Z,66.03
2023-01-29T14:50:28.874Z,66.85
2023-01-29T14:53:19.591Z,65.80
2023-01-29T14:56:12.426Z,66.72
2023-01-29T14:58:51.881Z,65.28
2023-01-29T15:01:26.728Z,65.76
2023-01-29T15:04:02.586Z,66.14
2023-01-29T15:06:41.323Z,67.87
2023-01-29T15:09:36.388Z,67.50
2023-01-29T15:12:23.030Z,69.06
2023-01-29T15:15:01.849Z,68.95
2023-01-29T15:17:32.812Z,68.87
2023-01-29T15:19:59.554Z,68.60
2023-01-29T15:22:28.947Z,68.89
2023-01-29T15:25:07.308Z,69.09
2023-01-29T15:27:34.247Z,71.13
2023-01-29T15:30:04.381Z,71.35
2023-01-29T15:32:37.228Z,71.76
2023-01-29T15:35:19.815Z,71.66
2023-01-29T15:37:59.122Z,73.99
2023-01-29T15:40:26.889Z,71.90
2023-01-29T15:42:53.869Z,69.09
2023-01-29T15:45:32.219Z,71.33
2023-01-29T15:48:13.828Z,71.52
2023-01-29T15:50:42.288Z,71.41
2023-01-29T15:53:15.852Z,72.12
2023-01-29T15:55:43.634Z,75.37
2023-01-29T15:58:18.807Z,73.20
2023-01-29T16:00:55.512Z,72.43
2023-01-29T16:03:25.474Z,72.87
2023-01-29T16:05:52.642Z,75.08
2023-01-29T16:08:21.818Z,78.18
2023-01-29T16:10:53.617Z,77.64
2023-01-29T16:13:25.731Z,74.70
2023-01-29T16:16:07.504Z,75.60
2023-01-29T16:18:42.825Z,74.94
2023-01-29T16:21:17.253Z,75.36
2023-01-29T16:23:49.812Z,75.36
2023-01-29T16:26:21.662Z,74.08
2023-01-29T16:28:48.386Z,73.25
2023-01-29T16:31:23.669Z,75.20
2023-01-29T16:33:50.388Z,75.56
2023-01-29T16:36:21.676Z,72.64
2023-01-29T16:39:00.977Z,74.28
2023-01-29T16:41:33.146Z,73.39
2023-01-29T16:44:12.939Z,73.90
2023-01-29T16:46:48.008Z,73.58
2023-01-29T16:49:40.434Z,72.66
2023-01-29T16:52:19.291Z,74.21
2023-01-29T16:54:46.713Z,72.53
2023-01-29T16:57:18.141Z,73.55
2023-01-29T16:59:45.891Z,74.32
2023-01-29T17:02:23.096Z,73.12
2023-01-29T17:04:52.446Z,73.67
2023-01-29T17:07:22.317Z,74.85
2023-01-29T17:09:54.056Z,73.82
2023-01-29T17:12:26.396Z,73.42
2023-01-29T17:15:05.888Z,72.93
2023-01-29T17:17:35.748Z,73.68
2023-01-29T17:20:16.484Z,73.31
2023-01-29T17:22:44.688Z,74.01
2023-01-29T17:25:14.199Z,73.25
2023-01-29T17:27:45.199Z,74.27
2023-01-29T17:30:16.562Z,74.94
2023-01-29T17:32:47.347Z,74.45
2023-01-29T17:35:17.026Z,74.48
2023-01-29T17:37:44.959Z,75.07
2023-01-29T17:40:47.360Z,75.91
2023-01-29T17:43:13.903Z,74.45
2023-01-29T17:45:40.717Z,73.92
2023-01-29T17:48:15.361Z,73.77
2023-01-29T17:50:48.325Z,75.20
2023-01-29T17:53:17.859Z,73.59
2023-01-29T17:55:45.022Z,73.96
2023-01-29T17:58:19.292Z,72.53
2023-01-29T18:00:46.825Z,74.59
2023-01-29T18:03:13.487Z,73.58
2023-01-29T18:05:42.429Z,74.35
2023-01-29T18:08:22.190Z,74.90
2023-01-29T18:10:48.669Z,75.12
2023-01-29T18:13:15.353Z,73.79
2023-01-29T18:15:43.074Z,74.83
2023-01-29T18:18:14.034Z,74.54
2023-01-29T18:20:40.642Z,74.55
2023-01-29T18:23:08.376Z,74.83
2023-01-29T18:25:35.241Z,73.45
2023-01-29T18:28:02.460Z,74.82
2023-01-29T18:30:31.505Z,76.12
2023-01-29T18:32:58.093Z,75.08
2023-01-29T18:35:27.159Z,75.67
2023-01-29T18:37:54.032Z,76.25
2023-01-29T18:40:20.795Z,75.19
2023-01-29T18:42:47.470Z,74.37
2023-01-29T18:45:15.247Z,74.90
2023-01-29T18:47:42.671Z,73.98
2023-01-29T18:50:11.676Z,75.75
2023-01-29T18:52:38.853Z,74.72
2023-01-29T18:55:06.143Z,74.77
2023-01-29T18:58:31.048Z,76.27
2023-01-29T19:00:20.511Z,76.29
2023-01-29T19:02:46.921Z,75.70
2023-01-29T19:05:13.389Z,76.80
2023-01-29T19:07:41.262Z,74.95
2023-01-29T19:10:12.406Z,76.93
2023-01-29T19:12:42.210Z,75.20
2023-01-29T19:15:09.733Z,76.26
2023-01-29T19:17:37.938Z,76.21
2023-01-29T19:20:04.723Z,75.23
2023-01-29T19:22:32.320Z,75.44
2023-01-29T19:24:59.094Z,75.67
2023-01-29T19:27:30.144Z,74.72
2023-01-29T19:29:58.079Z,75.24
2023-01-29T19:32:24.669Z,75.86
2023-01-29T19:34:52.161Z,74.25
2023-01-29T19:37:18.575Z,75.37
2023-01-29T19:39:45.075Z,74.82
2023-01-29T19:42:11.530Z,75.62
2023-01-29T19:44:56.273Z,76.17
2023-01-29T19:47:23.158Z,76.12
2023-01-29T19:49:50.595Z,75.93
2023-01-29T19:52:51.254Z,76.36
2023-01-29T19:55:19.948Z,75.87
2023-01-29T19:57:47.432Z,75.36
2023-01-29T20:00:15.467Z,76.10
2023-01-29T20:02:42.508Z,76.24
2023-01-29T20:05:11.949Z,74.67
2023-01-29T20:07:42.383Z,75.84
2023-01-29T20:10:16.839Z,76.50
2023-01-29T20:12:45.735Z,75.78
2023-01-29T20:15:13.944Z,75.28
2023-01-29T20:17:40.520Z,74.99
2023-01-29T20:20:08.444Z,76.42
2023-01-29T20:22:35.924Z,77.07
2023-01-29T20:25:02.532Z,75.33
2023-01-29T20:27:29.221Z,76.36
2023-01-29T20:29:55.899Z,75.78
2023-01-29T20:32:22.616Z,76.49
2023-01-29T20:34:51.930Z,75.68
2023-01-29T20:37:19.852Z,77.40
2023-01-29T20:39:47.274Z,77.06
2023-01-29T20:42:14.202Z,76.14
2023-01-29T20:44:41.195Z,76.80
2023-01-29T20:47:08.373Z,76.71
2023-01-29T20:49:35.443Z,77.53
2023-01-29T20:52:01.952Z,76.77
2023-01-29T20:54:29.845Z,77.99
2023-01-29T20:56:57.119Z,77.59
2023-01-29T20:59:24.103Z,77.20
2023-01-29T21:01:50.848Z,77.91
2023-01-29T21:04:17.449Z,77.59
2023-01-29T21:06:44.248Z,78.32
2023-01-29T21:09:10.814Z,77.55
2023-01-29T21:11:37.326Z,78.70
2023-01-29T21:14:04.371Z,78.48
2023-01-29T21:16:32.224Z,77.69
2023-01-29T21:18:59.718Z,77.70
2023-01-29T21:21:26.883Z,79.13
2023-01-29T21:23:53.533Z,78.19
2023-01-29T21:26:20.615Z,79.47
2023-01-29T21:28:47.108Z,79.62
2023-01-29T21:31:16.149Z,79.91
2023-01-29T21:33:44.330Z,79.08
2023-01-29T21:36:11.757Z,78.10
2023-01-29T21:38:38.823Z,78.23
2023-01-29T21:41:08.602Z,79.25
2023-01-29T21:43:35.572Z,80.35
2023-01-29T21:46:11.402Z,79.65
2023-01-29T21:48:39.281Z,79.10
2023-01-29T21:51:06.778Z,81.07
2023-01-29T21:53:33.802Z,80.28
2023-01-29T21:56:01.204Z,78.44
2023-01-29T21:58:28.270Z,81.06
2023-01-29T22:00:54.725Z,80.33
2023-01-29T22:03:21.565Z,80.90
2023-01-29T22:05:49.952Z,80.84
2023-01-29T22:08:17.779Z,80.03
2023-01-29T22:10:44.294Z,81.42
2023-01-29T22:13:11.263Z,81.40
2023-01-29T22:15:38.217Z,79.75
2023-01-29T22:18:04.906Z,82.43
2023-01-29T22:20:31.569Z,80.48
2023-01-29T22:23:00.151Z,80.07
2023-01-29T22:25:27.518Z,80.89
2023-01-29T22:27:54.376Z,81.02
2023-01-29T22:30:23.102Z,82.17
2023-01-29T22:32:50.424Z,80.51
2023-01-29T22:35:17.401Z,80.27
2023-01-29T22:37:44.990Z,80.47
2023-01-29T22:40:11.845Z,79.84
2023-01-29T22:42:38.574Z,81.66
2023-01-29T22:45:05.785Z,79.62
2023-01-29T22:47:33.564Z,79.91
2023-01-29T22:50:00.361Z,80.04
2023-01-29T22:52:27.860Z,79.30
2023-01-29T22:54:54.283Z,79.43
2023-01-29T22:57:20.860Z,79.20
2023-01-29T22:59:47.499Z,80.41
2023-01-29T23:02:14.209Z,80.88
2023-01-29T23:04:41.468Z,80.40
2023-01-29T23:07:07.940Z,81.12
2023-01-29T23:09:34.517Z,81.14
2023-01-29T23:12:01.308Z,80.79
2023-01-29T23:14:28.158Z,80.52
2023-01-29T23:16:55.129Z,79.83
2023-01-29T23:19:21.832Z,80.88
2023-01-29T23:21:48.548Z,81.19
2023-01-29T23:24:15.581Z,81.51
2023-01-29T23:27:00.817Z,80.85
2023-01-29T23:29:27.588Z,80.19
2023-01-29T23:31:54.195Z,80.84
2023-01-29T23:34:22.055Z,80.42
2023-01-29T23:36:48.581Z,80.47
2023-01-29T23:39:15.393Z,81.72
2023-01-29T23:41:42.039Z,80.88
2023-01-29T23:44:08.515Z,80.57
2023-01-29T23:46:35.352Z,80.20
2023-01-29T23:49:01.989Z,81.68
2023-01-29T23:51:29.012Z,80.01
2023-01-29T23:53:56.343Z,81.90
2023-01-29T23:56:23.048Z,80.15
2023-01-29T23:58:54.765Z,82.25
